TimeEDT,TemperatureF,Dew PointF,Humidity,Sea Level PressureIn,VisibilityMPH,Wind Direction,Wind SpeedMPH,Gust SpeedMPH,PrecipitationIn,Events,Conditions,WindDirDegrees,DateUTC
12:54 AM,54.0,35.1,49,29.91,-9999.0,WSW,12.7,25.3,N/A,,Unknown,250,2013-10-27 04:54:00
1:54 AM,54.0,35.1,49,29.90,-9999.0,WSW,10.4,18.4,N/A,,Unknown,240,2013-10-27 05:54:00
2:54 AM,53.1,34.0,48,29.88,-9999.0,WSW,12.7,19.6,N/A,,Unknown,250,2013-10-27 06:54:00
3:54 AM,53.1,34.0,48,29.86,-9999.0,WSW,9.2,18.4,N/A,,Unknown,240,2013-10-27 07:54:00
4:54 AM,48.9,37.9,66,29.87,-9999.0,WSW,9.2,18.4,N/A,,Unknown,250,2013-10-27 08:54:00
5:54 AM,51.1,39.0,63,29.87,-9999.0,West,8.1,-,N/A,,Unknown,270,2013-10-27 09:54:00
6:54 AM,48.9,39.0,69,29.88,-9999.0,Variable,4.6,-,N/A,,Unknown,0,2013-10-27 10:54:00
7:54 AM,50.0,37.9,63,29.90,-9999.0,SW,5.8,-,N/A,,Unknown,230,2013-10-27 11:54:00
8:54 AM,52.0,37.9,59,29.92,-9999.0,WSW,6.9,-,N/A,,Unknown,250,2013-10-27 12:54:00
9:54 AM,53.1,36.0,52,29.93,-9999.0,West,10.4,18.4,N/A,,Unknown,270,2013-10-27 13:54:00
10:54 AM,54.0,36.0,51,29.94,-9999.0,WNW,6.9,18.4,N/A,,Unknown,290,2013-10-27 14:54:00
11:54 AM,54.0,36.0,51,29.95,-9999.0,West,9.2,-,N/A,,Unknown,280,2013-10-27 15:54:00
12:54 PM,54.0,36.0,51,29.92,-9999.0,West,9.2,-,N/A,,Unknown,260,2013-10-27 16:54:00
1:54 PM,54.0,35.1,49,29.91,-9999.0,West,10.4,-,N/A,,Unknown,260,2013-10-27 17:54:00
2:54 PM,55.0,34.0,45,29.92,-9999.0,WSW,9.2,-,N/A,,Unknown,240,2013-10-27 18:54:00
3:54 PM,55.9,34.0,44,29.93,-9999.0,West,10.4,19.6,N/A,,Unknown,260,2013-10-27 19:54:00
4:54 PM,55.9,33.1,42,29.94,-9999.0,West,12.7,20.7,N/A,,Unknown,260,2013-10-27 20:54:00
5:54 PM,55.9,33.1,42,29.97,-9999.0,West,10.4,18.4,N/A,,Unknown,270,2013-10-27 21:54:00
6:54 PM,55.9,32.0,40,30.01,-9999.0,West,8.1,19.6,N/A,,Unknown,270,2013-10-27 22:54:00
7:54 PM,55.0,30.9,40,30.03,-9999.0,NW,9.2,16.1,N/A,,Unknown,310,2013-10-27 23:54:00
8:54 PM,54.0,28.9,38,30.05,-9999.0,NW,9.2,-,N/A,,Unknown,310,2013-10-28 00:54:00
9:54 PM,53.1,30.0,41,30.08,-9999.0,WNW,4.6,-,N/A,,Unknown,300,2013-10-28 01:54:00
10:54 PM,53.1,30.9,43,30.10,-9999.0,NW,6.9,-,N/A,,Unknown,310,2013-10-28 02:54:00
11:54 PM,51.1,32.0,48,30.11,-9999.0,NW,4.6,-,N/A,,Unknown,320,2013-10-28 03:54:00